首页
METAR-TAF:

METAR-TAF

机场 :

高知機場

高知, 日本

纬度: 33-32N, 经度: 133-40E, 海拔: 7米

当前天气观测

该预报发布于9小时和10分钟前的11:00 UTC
风速5节,风向
温度 24°C
湿度 57%
气压 1014 hPa
能见度10公里或以上
少量云层高于2500英尺
散云层高于13000英尺
多云

METAR: RJOK 241100Z 35005KT 9999 FEW025 SCT130 BKN/// 24/15 Q1014

时间: 05:10 (20:10 UTC)

预报

该预报发布于3小时和1分钟前的17:09 UTC
预报有效从24日的 18点(UTC)到 26日的 00点(UTC)
风速5节,风向
能見度: 8000
少量云层高于1500英尺
散云层高于2500英尺
多云层高于3500英尺
小阵雨
短暂存在
从 24日的 18点(UTC)到 24日的 23点(UTC)
能見度: 4000
阵雨, 轻雾
成为
从 25日的 01点(UTC)到 25日的 03点(UTC)
风速5节,风向
成为
从 25日的 09点(UTC)到 25日的 12点(UTC)
风速8节,风向

TAF: RJOK 241709Z 2418/2600 35005KT 8000 -SHRA FEW015 SCT025 BKN035 TEMPO 2418/2423 4000 SHRA BR BECMG 2501/2503 18005KT BECMG 2509/2512 35008KT

超过4000个机场的气象观测和天气预报(METAR&TAF报告)。

可查询的气象台以黄色和红色小点在地图上表示。

将鼠标移到小点上方,可查看气象台名称。

然后点击查看天气观测和预报。

如需切换地图:点击带黑十字的绿色按钮放大地图;点击带横线的绿色按钮缩小地图;或者点击绿色箭头查看邻近地区的地图。


METAR-TAF: